Wetterdaten: Woche 03.07.06 - 09.07.06 (KW27)
Datum Zeit Temperatur Luftfeuchte Luftdruck Niederschlag Windrichtung Wind
03.07.2006 00:00 16,4 C 70 % 1018 hPa 0,0 l/m N 7,6 km/h (2 Bft)
03.07.2006 01:00 15,4 C 74 % 1018 hPa 0,0 l/m N 9,2 km/h (2 Bft)
03.07.2006 02:00 14,6 C 78 % 1018 hPa 0,0 l/m N-NW 8,3 km/h (2 Bft)
03.07.2006 03:00 13,9 C 83 % 1018 hPa 0,0 l/m NW 8,3 km/h (2 Bft)
03.07.2006 04:00 13,2 C 87 % 1017 hPa 0,0 l/m N-NW 6,1 km/h (2 Bft)
03.07.2006 05:00 12,7 C 91 % 1017 hPa 0,0 l/m N-NW 3,0 km/h (1 Bft)
03.07.2006 06:00 12,6 C 92 % 1017 hPa 0,0 l/m N-NW 3,4 km/h (1 Bft)
03.07.2006 07:00 12,6 C 92 % 1017 hPa 0,0 l/m N-NO 9,5 km/h (2 Bft)
03.07.2006 08:00 14,1 C 88 % 1017 hPa 0,0 l/m N-NO 9,2 km/h (2 Bft)
03.07.2006 09:00 17,3 C 78 % 1017 hPa 0,0 l/m N 11,8 km/h (2 Bft)
03.07.2006 10:00 19,3 C 69 % 1017 hPa 0,0 l/m O-NO 12,8 km/h (3 Bft)
03.07.2006 11:00 21,5 C 58 % 1017 hPa 0,0 l/m O 12,0 km/h (2 Bft)
03.07.2006 12:00 23,3 C 53 % 1017 hPa 0,0 l/m N 10,8 km/h (2 Bft)
03.07.2006 13:00 25,4 C 46 % 1016 hPa 0,0 l/m O-NO 12,1 km/h (2 Bft)
03.07.2006 14:00 27,0 C 38 % 1016 hPa 0,0 l/m O 10,0 km/h (2 Bft)
03.07.2006 15:00 28,1 C 35 % 1016 hPa 0,0 l/m O-SO 10,3 km/h (2 Bft)
03.07.2006 16:00 28,7 C 34 % 1016 hPa 0,0 l/m N-NO 11,7 km/h (2 Bft)
03.07.2006 17:00 28,4 C 36 % 1015 hPa 0,0 l/m N 10,4 km/h (2 Bft)
03.07.2006 18:00 28,0 C 37 % 1015 hPa 0,0 l/m N 12,2 km/h (2 Bft)
03.07.2006 19:00 26,9 C 39 % 1015 hPa 0,0 l/m N-NO 11,9 km/h (2 Bft)
03.07.2006 20:00 24,9 C 46 % 1015 hPa 0,0 l/m N-NO 11,0 km/h (2 Bft)
03.07.2006 21:00 22,8 C 54 % 1016 hPa 0,0 l/m N-NO 1,7 km/h (1 Bft)
03.07.2006 22:00 20,5 C 64 % 1016 hPa 0,0 l/m N 0,0 km/h (0 Bft)
03.07.2006 23:00 19,4 C 69 % 1016 hPa 0,0 l/m W-NW 1,6 km/h (1 Bft)
04.07.2006 00:00 18,7 C 73 % 1017 hPa 0,0 l/m NW 2,1 km/h (1 Bft)
04.07.2006 01:00 18,4 C 75 % 1017 hPa 0,0 l/m NW 5,4 km/h (1 Bft)
04.07.2006 02:00 17,9 C 78 % 1017 hPa 0,0 l/m NW 4,1 km/h (1 Bft)
04.07.2006 03:00 17,0 C 82 % 1016 hPa 0,0 l/m N 0,0 km/h (0 Bft)
04.07.2006 04:00 16,4 C 86 % 1017 hPa 0,0 l/m NW 2,9 km/h (1 Bft)
04.07.2006 05:00 15,8 C 89 % 1017 hPa 0,0 l/m NW 0,8 km/h (0 Bft)
04.07.2006 06:00 15,7 C 93 % 1017 hPa 0,0 l/m N-NW 7,7 km/h (2 Bft)
04.07.2006 07:00 15,7 C 93 % 1017 hPa 0,0 l/m N 2,6 km/h (1 Bft)
04.07.2006 08:00 17,2 C 89 % 1018 hPa 0,0 l/m N-NO 1,8 km/h (1 Bft)
04.07.2006 09:00 20,6 C 77 % 1018 hPa 0,0 l/m O 7,6 km/h (2 Bft)
04.07.2006 10:00 23,3 C 66 % 1018 hPa 0,0 l/m O 6,4 km/h (2 Bft)
04.07.2006 11:00 26,0 C 50 % 1018 hPa 0,0 l/m O-SO 7,6 km/h (2 Bft)
04.07.2006 12:00 27,2 C 44 % 1018 hPa 0,0 l/m S-SW 8,6 km/h (2 Bft)
04.07.2006 13:00 28,7 C 37 % 1017 hPa 0,0 l/m S-SW 9,8 km/h (2 Bft)
04.07.2006 14:00 28,4 C 36 % 1017 hPa 0,0 l/m S-SW 5,0 km/h (1 Bft)
04.07.2006 15:00 29,2 C 34 % 1016 hPa 0,0 l/m S-SW 6,9 km/h (2 Bft)
04.07.2006 16:00 27,8 C 39 % 1016 hPa 0,0 l/m S-SW 0,4 km/h (0 Bft)
04.07.2006 17:00 28,7 C 37 % 1016 hPa 0,0 l/m O 3,0 km/h (1 Bft)
04.07.2006 18:00 30,2 C 32 % 1016 hPa 0,0 l/m SO 2,5 km/h (1 Bft)
04.07.2006 19:00 28,9 C 35 % 1016 hPa 0,0 l/m O 5,9 km/h (2 Bft)
04.07.2006 20:00 26,8 C 42 % 1016 hPa 0,0 l/m O 5,0 km/h (1 Bft)
04.07.2006 21:00 23,7 C 55 % 1016 hPa 0,0 l/m O 0,3 km/h (0 Bft)
04.07.2006 22:00 21,2 C 65 % 1017 hPa 0,0 l/m N 0,0 km/h (0 Bft)
04.07.2006 23:00 20,1 C 70 % 1017 hPa 0,0 l/m N 0,0 km/h (0 Bft)
05.07.2006 00:00 19,4 C 72 % 1017 hPa 0,0 l/m W-NW 0,4 km/h (0 Bft)
05.07.2006 01:00 18,8 C 75 % 1017 hPa 0,0 l/m W 0,3 km/h (0 Bft)
05.07.2006 02:00 18,2 C 80 % 1016 hPa 0,0 l/m N 0,0 km/h (0 Bft)
05.07.2006 03:00 17,7 C 83 % 1017 hPa 0,0 l/m W-NW 2,6 km/h (1 Bft)
05.07.2006 04:00 17,3 C 83 % 1017 hPa 0,0 l/m W-NW 0,3 km/h (0 Bft)
05.07.2006 05:00 16,6 C 87 % 1017 hPa 0,0 l/m N 0,0 km/h (0 Bft)
05.07.2006 06:00 16,4 C 92 % 1017 hPa 0,0 l/m NW 2,7 km/h (1 Bft)
05.07.2006 07:00 17,5 C 90 % 1018 hPa 0,0 l/m NW 1,0 km/h (0 Bft)
05.07.2006 08:00 19,3 C 82 % 1018 hPa 0,0 l/m W 1,0 km/h (0 Bft)
05.07.2006 09:00 21,8 C 72 % 1018 hPa 0,0 l/m S-SW 8,0 km/h (2 Bft)
05.07.2006 10:00 24,5 C 55 % 1019 hPa 0,0 l/m W-SW 10,9 km/h (2 Bft)
05.07.2006 11:00 26,7 C 46 % 1018 hPa 0,0 l/m N-NO 9,6 km/h (2 Bft)
05.07.2006 12:00 28,4 C 42 % 1018 hPa 0,0 l/m N 7,8 km/h (2 Bft)
05.07.2006 13:00 30,0 C 37 % 1018 hPa 0,0 l/m S 8,4 km/h (2 Bft)
05.07.2006 14:00 30,9 C 35 % 1017 hPa 0,0 l/m S-SW 9,6 km/h (2 Bft)
05.07.2006 15:00 31,2 C 32 % 1017 hPa 0,0 l/m S-SW 8,7 km/h (2 Bft)
05.07.2006 16:00 31,5 C 32 % 1016 hPa 0,0 l/m O-SO 7,8 km/h (2 Bft)
05.07.2006 17:00 31,8 C 31 % 1016 hPa 0,0 l/m NO 12,9 km/h (3 Bft)
05.07.2006 18:00 31,1 C 31 % 1015 hPa 0,0 l/m NO 16,3 km/h (3 Bft)
05.07.2006 19:00 28,9 C 38 % 1016 hPa 0,0 l/m N-NO 8,6 km/h (2 Bft)
05.07.2006 20:00 26,9 C 46 % 1017 hPa 0,0 l/m W-NW 3,0 km/h (1 Bft)
05.07.2006 21:00 22,5 C 59 % 1018 hPa 0,0 l/m SW 23,4 km/h (4 Bft)
05.07.2006 22:00 16,7 C 84 % 1021 hPa 2,0 l/m W-SW 27,0 km/h (4 Bft)
05.07.2006 23:00 15,8 C 93 % 1022 hPa 3,0 l/m W 22,9 km/h (4 Bft)
06.07.2006 00:00 15,8 C 93 % 1021 hPa 0,0 l/m W 17,0 km/h (3 Bft)
06.07.2006 01:00 15,8 C 93 % 1022 hPa 0,0 l/m S-SW 2,6 km/h (1 Bft)
06.07.2006 02:00 15,8 C 93 % 1021 hPa 0,0 l/m N 0,1 km/h (0 Bft)
06.07.2006 03:00 15,8 C 93 % 1020 hPa 0,0 l/m N 0,0 km/h (0 Bft)
06.07.2006 04:00 15,8 C 93 % 1020 hPa 0,0 l/m N 0,0 km/h (0 Bft)
06.07.2006 05:00 15,8 C 93 % 1020 hPa 0,0 l/m N 0,2 km/h (0 Bft)
06.07.2006 06:00 15,8 C 93 % 1020 hPa 0,0 l/m N 0,6 km/h (0 Bft)
06.07.2006 07:00 16,4 C 88 % 1020 hPa 1,0 l/m N 0,0 km/h (0 Bft)
06.07.2006 08:00 16,5 C 97 % 1019 hPa 0,0 l/m N-NO 1,4 km/h (1 Bft)
06.07.2006 09:00 18,2 C 89 % 1019 hPa 0,0 l/m N-NO 3,8 km/h (1 Bft)
06.07.2006 10:00 20,8 C 74 % 1019 hPa 0,0 l/m O-NO 9,5 km/h (2 Bft)
06.07.2006 11:00 22,5 C 68 % 1019 hPa 0,0 l/m O-SO 7,2 km/h (2 Bft)
06.07.2006 22:00 19,1 C 77 % 1019 hPa 0,0 l/m N 0,0 km/h (0 Bft)
06.07.2006 23:00 18,8 C 81 % 1019 hPa 0,0 l/m N 0,0 km/h (0 Bft)
07.07.2006 00:00 17,4 C 91 % 1019 hPa 0,0 l/m W-SW 0,3 km/h (0 Bft)
07.07.2006 01:00 16,5 C 95 % 1018 hPa 0,0 l/m W 0,6 km/h (0 Bft)
07.07.2006 02:00 16,5 C 95 % 1018 hPa 0,0 l/m W-SW 1,7 km/h (1 Bft)
07.07.2006 03:00 16,8 C 92 % 1018 hPa 0,0 l/m W 7,2 km/h (2 Bft)
07.07.2006 04:00 16,8 C 93 % 1018 hPa 0,0 l/m W 5,1 km/h (1 Bft)
07.07.2006 05:00 16,6 C 94 % 1018 hPa 0,0 l/m N 0,0 km/h (0 Bft)
07.07.2006 06:00 16,7 C 95 % 1019 hPa 0,0 l/m S-SW 4,4 km/h (1 Bft)
07.07.2006 07:00 17,3 C 92 % 1019 hPa 0,0 l/m W-SW 7,5 km/h (2 Bft)
07.07.2006 08:00 17,4 C 89 % 1019 hPa 0,0 l/m W 9,0 km/h (2 Bft)
07.07.2006 09:00 17,5 C 91 % 1019 hPa 0,0 l/m W 6,9 km/h (2 Bft)
07.07.2006 10:00 17,6 C 93 % 1019 hPa 0,0 l/m S-SW 6,2 km/h (2 Bft)
07.07.2006 11:00 17,5 C 96 % 1019 hPa 1,0 l/m S-SW 11,3 km/h (2 Bft)
07.07.2006 12:00 17,4 C 99 % 1019 hPa 1,0 l/m S-SW 7,9 km/h (2 Bft)
07.07.2006 13:00 16,9 C 99 % 1019 hPa 3,0 l/m W 9,0 km/h (2 Bft)
07.07.2006 14:00 17,4 C 100 % 1019 hPa 2,0 l/m S-SW 9,6 km/h (2 Bft)
07.07.2006 15:00 18,3 C 97 % 1019 hPa 0,0 l/m S 14,6 km/h (3 Bft)
07.07.2006 16:00 18,9 C 88 % 1019 hPa 0,0 l/m S-SW 12,9 km/h (3 Bft)
07.07.2006 17:00 18,6 C 90 % 1019 hPa 0,0 l/m N-NW 7,2 km/h (2 Bft)
07.07.2006 18:00 18,5 C 94 % 1019 hPa 0,0 l/m S-SW 4,6 km/h (1 Bft)
07.07.2006 19:00 18,6 C 89 % 1019 hPa 0,0 l/m S-SW 11,1 km/h (2 Bft)
07.07.2006 20:00 17,7 C 93 % 1019 hPa 0,0 l/m W-SW 10,2 km/h (2 Bft)
07.07.2006 21:00 16,9 C 96 % 1020 hPa 0,0 l/m S 6,5 km/h (2 Bft)
07.07.2006 22:00 16,7 C 100 % 1020 hPa 0,0 l/m S 1,6 km/h (1 Bft)
07.07.2006 23:00 16,6 C 100 % 1020 hPa 0,0 l/m S 1,2 km/h (1 Bft)
08.07.2006 00:00 16,6 C 100 % 1020 hPa 0,0 l/m S-SW 0,9 km/h (0 Bft)
08.07.2006 01:00 16,5 C 100 % 1020 hPa 0,0 l/m S 1,9 km/h (1 Bft)
08.07.2006 02:00 16,3 C 100 % 1020 hPa 0,0 l/m S 1,4 km/h (1 Bft)
08.07.2006 03:00 16,0 C 100 % 1020 hPa 0,0 l/m S 7,9 km/h (2 Bft)
08.07.2006 04:00 15,8 C 100 % 1020 hPa 0,0 l/m S 8,4 km/h (2 Bft)
08.07.2006 05:00 15,8 C 100 % 1020 hPa 0,0 l/m S 7,9 km/h (2 Bft)
08.07.2006 06:00 15,7 C 100 % 1020 hPa 0,0 l/m S 5,8 km/h (2 Bft)
08.07.2006 07:00 16,0 C 100 % 1020 hPa 0,0 l/m S 2,9 km/h (1 Bft)
08.07.2006 08:00 16,6 C 100 % 1020 hPa 0,0 l/m S 2,3 km/h (1 Bft)
08.07.2006 09:00 17,4 C 100 % 1021 hPa 1,0 l/m S-SW 2,6 km/h (1 Bft)
08.07.2006 10:00 17,4 C 100 % 1021 hPa 1,0 l/m N 0,0 km/h (0 Bft)
08.07.2006 11:00 17,6 C 100 % 1021 hPa 0,0 l/m S 3,5 km/h (1 Bft)
08.07.2006 12:00 18,2 C 100 % 1021 hPa 0,0 l/m S-SW 11,2 km/h (2 Bft)
08.07.2006 13:00 19,8 C 92 % 1021 hPa 0,0 l/m SO 11,7 km/h (2 Bft)
08.07.2006 14:00 20,2 C 83 % 1020 hPa 0,0 l/m O 4,3 km/h (1 Bft)
08.07.2006 15:00 19,9 C 90 % 1020 hPa 0,0 l/m S-SW 1,7 km/h (1 Bft)
08.07.2006 16:00 19,9 C 90 % 1020 hPa 1,0 l/m O 0,8 km/h (0 Bft)
08.07.2006 17:00 22,2 C 77 % 1020 hPa 0,0 l/m O 4,3 km/h (1 Bft)
08.07.2006 18:00 21,7 C 75 % 1020 hPa 0,0 l/m O 2,6 km/h (1 Bft)
08.07.2006 19:00 21,2 C 77 % 1020 hPa 0,0 l/m O 1,4 km/h (1 Bft)
08.07.2006 20:00 20,3 C 84 % 1020 hPa 0,0 l/m NW 1,2 km/h (1 Bft)
08.07.2006 21:00 18,2 C 93 % 1021 hPa 0,0 l/m NW 0,2 km/h (0 Bft)
08.07.2006 22:00 17,0 C 96 % 1021 hPa 0,0 l/m NW 0,2 km/h (0 Bft)
08.07.2006 23:00 16,5 C 99 % 1021 hPa 0,0 l/m N 0,0 km/h (0 Bft)
09.07.2006 00:00 15,8 C 100 % 1021 hPa 0,0 l/m N 0,0 km/h (0 Bft)
09.07.2006 01:00 15,3 C 100 % 1021 hPa 0,0 l/m N 0,0 km/h (0 Bft)
09.07.2006 02:00 14,9 C 100 % 1020 hPa 0,0 l/m W-NW 3,0 km/h (1 Bft)
09.07.2006 03:00 14,4 C 100 % 1020 hPa 0,0 l/m N 0,0 km/h (0 Bft)
09.07.2006 04:00 13,8 C 100 % 1020 hPa 0,0 l/m N 0,0 km/h (0 Bft)
09.07.2006 05:00 13,5 C 100 % 1020 hPa 0,0 l/m N 0,0 km/h (0 Bft)
09.07.2006 06:00 13,3 C 100 % 1020 hPa 0,0 l/m N 0,0 km/h (0 Bft)
09.07.2006 07:00 14,2 C 100 % 1020 hPa 0,0 l/m N-NO 0,6 km/h (0 Bft)
09.07.2006 08:00 16,6 C 100 % 1020 hPa 0,0 l/m O 3,3 km/h (1 Bft)
09.07.2006 09:00 18,6 C 93 % 1020 hPa 0,0 l/m S 8,1 km/h (2 Bft)
09.07.2006 10:00 20,8 C 80 % 1020 hPa 0,0 l/m S-SO 7,3 km/h (2 Bft)
09.07.2006 11:00 23,0 C 66 % 1020 hPa 0,0 l/m O 9,0 km/h (2 Bft)
09.07.2006 12:00 24,2 C 58 % 1020 hPa 0,0 l/m S-SW 8,7 km/h (2 Bft)
09.07.2006 13:00 24,8 C 52 % 1020 hPa 0,0 l/m S-SW 10,7 km/h (2 Bft)
09.07.2006 14:00 25,8 C 48 % 1020 hPa 0,0 l/m W-SW 10,5 km/h (2 Bft)
09.07.2006 15:00 26,6 C 46 % 1019 hPa 0,0 l/m S-SW 14,6 km/h (3 Bft)
09.07.2006 16:00 26,4 C 41 % 1019 hPa 0,0 l/m W-SW 16,7 km/h (3 Bft)
09.07.2006 17:00 26,0 C 46 % 1019 hPa 0,0 l/m W 15,1 km/h (3 Bft)
09.07.2006 18:00 26,3 C 43 % 1020 hPa 0,0 l/m W 11,2 km/h (2 Bft)
09.07.2006 19:00 25,2 C 48 % 1020 hPa 0,0 l/m S-SW 4,4 km/h (1 Bft)
09.07.2006 20:00 22,9 C 51 % 1021 hPa 0,0 l/m W-SW 7,6 km/h (2 Bft)
09.07.2006 21:00 20,6 C 59 % 1022 hPa 0,0 l/m W-SW 8,1 km/h (2 Bft)
09.07.2006 22:00 19,2 C 68 % 1022 hPa 0,0 l/m W-SW 1,0 km/h (0 Bft)
09.07.2006 23:00 17,8 C 77 % 1023 hPa 0,0 l/m N 0,0 km/h (0 Bft)
Min-Datum _ 03.07.06 05.07.06 03.07.06 - - 03.07.06
_ Min-Zeit 05:24 16:44 16:18 - - 00:15
Minimum _ 12,6 C 30 % 1015 hPa - - 0,0 km/h (0 Bft)
Max-Datum _ 05.07.06 07.07.06 09.07.06 05.07.06 - 05.07.06
_ Max-Zeit 17:43 12:40 23:04 23:05 - 21:47
Maximum _ 31,9 C 100 % 1023 hPa 3,0 l/m - 68,0 km/h
SW (8 Bft)
Durchschnitt _ 20,0 C 76 % 1019 hPa #16,0 l/m S-SW 5,8 km/h (2 Bft)

Durchschnitt Minimum Temp.19,5 C
Durchschnitt Maximum Temp.20,6 C